Brazoria, TX

8:35 AM CST on February 09, 2016 (GMT -0600)
Magnolia Gardens | | Change Station
CLOSE
Current Station
Personal Weather Station
Location: Brazoria, TX
Elevation: 33 ft
Nearby Weather Stations

Elev 33 ft 29.04 °N, 95.56 °W | Updated 7 minutes ago

Clear
Clear
46.1 °F
Feels Like 44 °F
N
4.0
Wind Variable Wind from WSW
Gusts 6.0 mph

Today
High -- | Low -- °F
--% Chance of Precip.
Yesterday
High -- | Low -- °F
Precip. -- in
Pressure 30.37 in
Visibility 10.0 miles
Clouds Clear
Windchill 44 °F
Dew Point 24 °F
Humidity 41%
Rainfall 0.00 in
Snow Depth Not available.
7:06 AM 6:07 PM
New Moon, 1% visible
METAR KLBX 091353Z AUTO 32005KT 10SM CLR 07/M06 A3037 RMK AO2 SLP282 T00671061
Pressure 30.37 in
Visibility 10.0 miles
Clouds Clear
Windchill 44 °F
Dew Point 24 °F
Humidity 41%
Rainfall 0.00 in
Snow Depth Not available.
7:06 AM 6:07 PM
New Moon, 1% visible
METAR KLBX 091353Z AUTO 32005KT 10SM CLR 07/M06 A3037 RMK AO2 SLP282 T00671061

10-Day Weather Forecast

Almanac

Astronomy

Feb. 09, 2016 Rise Set
Actual Time
Civil Twilight
Nautical Twilight
Astronomical Twilight
Moon
Length of Visible Light
Length of Day
Tomorrow will be .
, % of the Moon is Illuminated

Today's Extremes

State Highs State Lows

Community

WunderPhotos

Upload Photos

1,891,606 photos uploaded!

WunderBlog® & News

Nearby

Air Quality

  Air Quality AQ Index Pollutant
Not available.

Snow Depth

Station Depth Elevation

Earthquake Activity

City Distance Mag. Time & Date
Minimum magnitude displayed is 2.5.

Coastal Water Temperatures

Place Temperature

Stations

Nearby Weather Stations

Station Location Temp. Windchill Dew Point Humidity Wind Precip. Elev Updated Type
                   

Watches & Warnings

There are currently no watches in effect.